createdAt,value
2019-05-23T00:00:25.135Z,87.45
2019-05-23T00:01:25.145Z,87.14
2019-05-23T00:02:25.171Z,87.24
2019-05-23T00:03:25.129Z,87.85
2019-05-23T00:04:25.127Z,87.35
2019-05-23T00:05:25.083Z,87.76
2019-05-23T00:06:25.079Z,87.59
2019-05-23T00:07:25.054Z,88.10
2019-05-23T00:08:25.044Z,88.17
2019-05-23T00:09:25.073Z,87.70
2019-05-23T00:10:25.041Z,87.65
2019-05-23T00:11:25.008Z,88.31
2019-05-23T00:12:25.003Z,88.51
2019-05-23T00:13:24.988Z,87.79
2019-05-23T00:14:24.978Z,88.71
2019-05-23T00:15:25.034Z,88.82
2019-05-23T00:16:24.949Z,88.10
2019-05-23T00:17:24.939Z,88.92
2019-05-23T00:18:24.929Z,88.71
2019-05-23T00:19:24.931Z,88.20
2019-05-23T00:20:24.917Z,88.51
2019-05-23T00:21:24.937Z,88.51
2019-05-23T00:22:24.928Z,88.51
2019-05-23T00:23:24.870Z,88.71
2019-05-23T00:24:24.861Z,88.96
2019-05-23T00:25:24.871Z,88.65
2019-05-23T00:26:24.885Z,89.17
2019-05-23T00:27:24.864Z,89.17
2019-05-23T00:28:24.820Z,89.17
2019-05-23T00:29:24.809Z,89.06
2019-05-23T00:30:24.823Z,89.26
2019-05-23T00:31:24.795Z,89.58
2019-05-23T00:32:24.815Z,89.88
2019-05-23T00:33:24.758Z,89.98
2019-05-23T00:34:24.748Z,89.67
2019-05-23T00:35:24.734Z,89.17
2019-05-23T00:36:24.826Z,89.98
2019-05-23T00:37:24.789Z,89.17
2019-05-23T00:38:24.713Z,89.82
2019-05-23T00:39:24.707Z,88.85
2019-05-23T00:40:24.684Z,89.92
2019-05-23T00:41:24.668Z,89.37
2019-05-23T00:42:24.661Z,89.37
2019-05-23T00:43:24.722Z,89.51
2019-05-23T00:44:24.662Z,89.92
2019-05-23T00:45:24.626Z,89.92
2019-05-23T00:46:24.625Z,89.82
2019-05-23T00:47:24.688Z,89.82
2019-05-23T00:48:24.600Z,89.82
2019-05-23T00:49:24.607Z,89.92
2019-05-23T00:50:24.566Z,89.86
2019-05-23T00:51:24.573Z,90.02
2019-05-23T00:52:24.602Z,90.02
2019-05-23T00:53:24.537Z,89.92
2019-05-23T00:54:24.561Z,89.51
2019-05-23T00:55:24.537Z,90.43
2019-05-23T00:56:24.544Z,90.53
2019-05-23T00:57:24.495Z,90.12
2019-05-23T00:58:24.494Z,90.02
2019-05-23T00:59:27.502Z,89.61
2019-05-23T01:00:24.494Z,90.06
2019-05-23T01:01:24.461Z,90.47
2019-05-23T01:02:24.432Z,90.99
2019-05-23T01:03:24.469Z,90.58
2019-05-23T01:04:24.425Z,90.58
2019-05-23T01:05:24.450Z,90.27
2019-05-23T01:06:24.421Z,90.27
2019-05-23T01:07:24.372Z,90.68
2019-05-23T01:08:24.366Z,90.47
2019-05-23T01:09:24.350Z,90.47
2019-05-23T01:10:24.338Z,89.65
2019-05-23T01:11:24.378Z,89.56
2019-05-23T01:12:24.366Z,90.47
2019-05-23T01:13:24.333Z,90.47
2019-05-23T01:14:24.291Z,90.37
2019-05-23T01:15:24.281Z,89.65
2019-05-23T01:16:24.278Z,90.27
2019-05-23T01:17:24.300Z,90.58
2019-05-23T01:18:24.259Z,90.37
2019-05-23T01:19:24.234Z,90.47
2019-05-23T01:20:24.247Z,90.00
2019-05-23T01:21:24.222Z,90.21
2019-05-23T01:22:24.219Z,90.06
2019-05-23T01:23:24.237Z,90.58
2019-05-23T01:24:24.204Z,89.86
2019-05-23T01:25:24.169Z,90.00
2019-05-23T01:26:24.245Z,90.27
2019-05-23T01:27:24.148Z,90.11
2019-05-23T01:28:24.140Z,89.86
2019-05-23T01:29:24.163Z,89.59
2019-05-23T01:30:24.131Z,89.86
2019-05-23T01:31:24.101Z,89.97
2019-05-23T01:32:24.133Z,89.65
2019-05-23T01:33:24.164Z,89.76
2019-05-23T01:34:24.066Z,89.76
2019-05-23T01:35:24.097Z,89.97
2019-05-23T01:36:24.040Z,90.27
2019-05-23T01:37:24.077Z,90.68
2019-05-23T01:38:24.020Z,90.58
2019-05-23T01:39:24.011Z,89.86
2019-05-23T01:40:24.004Z,89.76
2019-05-23T01:41:24.042Z,90.27
2019-05-23T01:42:23.984Z,89.86
2019-05-23T01:43:24.015Z,89.65
2019-05-23T01:44:23.954Z,89.65
2019-05-23T01:45:23.943Z,89.35
2019-05-23T01:46:23.932Z,89.25
2019-05-23T01:47:23.967Z,89.04
2019-05-23T01:48:23.929Z,90.06
2019-05-23T01:49:23.951Z,89.86
2019-05-23T01:50:23.889Z,90.06
2019-05-23T01:51:23.874Z,90.06
2019-05-23T01:52:23.861Z,89.97
2019-05-23T01:53:23.848Z,89.86
2019-05-23T01:54:23.835Z,89.04
2019-05-23T01:55:23.898Z,88.84
2019-05-23T01:56:23.816Z,89.76
2019-05-23T01:57:23.806Z,89.25
2019-05-23T01:58:23.790Z,89.86
2019-05-23T01:59:23.782Z,89.86
2019-05-23T02:00:23.777Z,89.76
2019-05-23T02:01:23.803Z,89.86
2019-05-23T02:02:23.842Z,89.76
2019-05-23T02:03:23.740Z,89.86
2019-05-23T02:04:23.738Z,89.35
2019-05-23T02:05:23.721Z,88.70
2019-05-23T02:06:23.705Z,89.25
2019-05-23T02:07:23.683Z,89.25
2019-05-23T02:08:23.721Z,88.94
2019-05-23T02:09:23.712Z,89.20
2019-05-23T02:10:23.675Z,88.90
2019-05-23T02:11:23.638Z,89.04
2019-05-23T02:12:23.665Z,88.84
2019-05-23T02:13:23.691Z,88.90
2019-05-23T02:14:23.612Z,87.92
2019-05-23T02:15:23.597Z,88.23
2019-05-23T02:16:23.581Z,88.08
2019-05-23T02:17:23.576Z,88.23
2019-05-23T02:18:23.558Z,87.88
2019-05-23T02:19:23.657Z,88.39
2019-05-23T02:20:23.536Z,88.18
2019-05-23T02:21:23.535Z,88.79
2019-05-23T02:22:23.574Z,88.94
2019-05-23T02:23:23.502Z,88.74
2019-05-23T02:24:23.528Z,89.04
2019-05-23T02:25:23.481Z,89.00
2019-05-23T02:26:23.522Z,89.45
2019-05-23T02:27:23.494Z,89.20
2019-05-23T02:28:23.446Z,89.25
2019-05-23T02:29:23.444Z,89.51
2019-05-23T02:30:34.100Z,89.41
2019-05-23T02:31:24.420Z,89.11
2019-05-23T02:32:23.417Z,89.82
2019-05-23T02:33:23.448Z,89.20
2019-05-23T02:34:23.382Z,89.15
2019-05-23T02:35:23.428Z,89.65
2019-05-23T02:36:23.408Z,89.82
2019-05-23T02:37:23.401Z,89.65
2019-05-23T02:38:23.336Z,90.06
2019-05-23T02:39:23.329Z,89.92
2019-05-23T02:40:23.311Z,89.86
2019-05-23T02:41:23.303Z,90.37
2019-05-23T02:42:23.307Z,89.86
2019-05-23T02:43:23.363Z,89.86
2019-05-23T02:44:23.275Z,90.06
2019-05-23T02:45:23.258Z,89.86
2019-05-23T02:46:23.241Z,89.97
2019-05-23T02:47:23.232Z,89.97
2019-05-23T02:48:23.266Z,89.76
2019-05-23T02:49:23.231Z,89.76
2019-05-23T02:50:23.209Z,89.86
2019-05-23T02:51:23.185Z,89.97
2019-05-23T02:52:23.195Z,89.76
2019-05-23T02:53:23.218Z,89.80
2019-05-23T02:54:23.149Z,90.11
2019-05-23T02:55:23.155Z,90.52
2019-05-23T02:56:23.155Z,90.72
2019-05-23T02:57:23.120Z,90.72
2019-05-23T02:58:23.108Z,90.72
2019-05-23T02:59:23.170Z,90.92
2019-05-23T03:00:23.093Z,90.62
2019-05-23T03:01:23.079Z,90.62
2019-05-23T03:02:23.076Z,91.13
2019-05-23T03:03:23.051Z,91.23
2019-05-23T03:04:23.115Z,90.41
2019-05-23T03:05:23.080Z,90.41
2019-05-23T03:06:23.016Z,91.03
2019-05-23T03:07:23.017Z,90.92
2019-05-23T03:08:22.993Z,90.82
2019-05-23T03:09:23.031Z,90.82
2019-05-23T03:10:22.971Z,90.72
2019-05-23T03:11:22.990Z,91.03
2019-05-23T03:12:25.226Z,90.77
2019-05-23T03:13:22.938Z,91.27
2019-05-23T03:14:22.929Z,90.66
2019-05-23T03:15:22.968Z,90.86
2019-05-23T03:16:22.905Z,90.77
2019-05-23T03:17:23.008Z,90.66
2019-05-23T03:18:22.908Z,91.07
2019-05-23T03:19:22.959Z,91.48
2019-05-23T03:20:22.861Z,91.58
2019-05-23T03:21:22.885Z,91.38
2019-05-23T03:22:22.839Z,91.78
2019-05-23T03:23:22.863Z,91.48
2019-05-23T03:24:22.808Z,91.73
2019-05-23T03:25:22.861Z,91.58
2019-05-23T03:26:22.787Z,91.83
2019-05-23T03:27:22.799Z,91.42
2019-05-23T03:28:22.810Z,91.63
2019-05-23T03:29:22.781Z,91.63
2019-05-23T03:30:22.746Z,91.52
2019-05-23T03:31:29.726Z,91.52
2019-05-23T03:32:23.788Z,91.63
2019-05-23T03:33:22.778Z,92.24
2019-05-23T03:34:22.862Z,92.34
2019-05-23T03:35:22.713Z,92.24
2019-05-23T03:36:22.692Z,91.63
2019-05-23T03:37:22.673Z,91.73
2019-05-23T03:38:22.670Z,91.87
2019-05-23T03:39:22.689Z,92.18
2019-05-23T03:40:22.633Z,92.08
2019-05-23T03:41:22.644Z,91.97
2019-05-23T03:42:22.613Z,92.28
2019-05-23T03:43:22.601Z,92.28
2019-05-23T03:44:22.601Z,92.69
2019-05-23T03:45:22.629Z,92.59
2019-05-23T03:46:22.611Z,92.59
2019-05-23T03:47:22.567Z,92.08
2019-05-23T03:48:22.545Z,92.28
2019-05-23T03:49:22.540Z,92.18
2019-05-23T03:50:22.592Z,91.97
2019-05-23T03:51:22.524Z,92.59
2019-05-23T03:52:22.580Z,92.18
2019-05-23T03:53:22.529Z,92.49
2019-05-23T03:54:22.481Z,92.18
2019-05-23T03:55:22.505Z,91.67
2019-05-23T03:56:22.492Z,91.77
2019-05-23T03:57:25.615Z,92.28
2019-05-23T03:58:22.489Z,92.18
2019-05-23T03:59:22.442Z,92.03
2019-05-23T04:00:22.415Z,92.18
2019-05-23T04:01:22.417Z,91.97
2019-05-23T04:02:22.395Z,92.08
2019-05-23T04:03:22.380Z,92.28
2019-05-23T04:04:22.422Z,92.08
2019-05-23T04:05:22.381Z,92.28
2019-05-23T04:06:22.341Z,92.18
2019-05-23T04:07:22.341Z,91.97
2019-05-23T04:08:22.316Z,92.08
2019-05-23T04:09:22.354Z,92.18
2019-05-23T04:10:22.343Z,92.18
2019-05-23T04:11:22.299Z,92.38
2019-05-23T04:12:22.312Z,92.28
2019-05-23T04:13:22.264Z,93.10
2019-05-23T04:14:22.245Z,93.16
2019-05-23T04:15:22.234Z,93.06
2019-05-23T04:16:22.266Z,93.26
2019-05-23T04:17:22.265Z,92.14
2019-05-23T04:18:22.252Z,92.34
2019-05-23T04:19:22.191Z,92.34
2019-05-23T04:20:22.234Z,92.24
2019-05-23T04:21:22.185Z,91.63
2019-05-23T04:22:22.157Z,92.24
2019-05-23T04:23:22.157Z,91.93
2019-05-23T04:24:22.193Z,92.14
2019-05-23T04:25:22.163Z,92.14
2019-05-23T04:26:22.135Z,92.24
2019-05-23T04:27:22.098Z,92.34
2019-05-23T04:28:22.086Z,92.03
2019-05-23T04:29:22.076Z,92.03
2019-05-23T04:30:22.075Z,91.93
2019-05-23T04:31:22.100Z,91.93
2019-05-23T04:32:22.039Z,91.99
2019-05-23T04:33:22.072Z,91.63
2019-05-23T04:34:22.017Z,92.34
2019-05-23T04:35:22.024Z,92.24
2019-05-23T04:36:22.019Z,91.78
2019-05-23T04:37:21.994Z,91.52
2019-05-23T04:38:21.980Z,91.58
2019-05-23T04:39:22.017Z,91.48
2019-05-23T04:40:21.961Z,91.58
2019-05-23T04:41:21.958Z,91.17
2019-05-23T04:42:21.980Z,91.27
2019-05-23T04:43:21.923Z,91.22
2019-05-23T04:44:21.909Z,90.56
2019-05-23T04:45:21.896Z,90.77
2019-05-23T04:46:21.936Z,90.92
2019-05-23T04:47:21.893Z,90.97
2019-05-23T04:48:21.875Z,90.72
2019-05-23T04:49:21.859Z,91.03
2019-05-23T04:50:21.866Z,91.23
2019-05-23T04:51:21.835Z,90.72
2019-05-23T04:52:21.870Z,91.23
2019-05-23T04:53:21.856Z,90.77
2019-05-23T04:54:21.800Z,91.03
2019-05-23T04:55:21.789Z,90.92
2019-05-23T04:56:21.894Z,91.03
2019-05-23T04:57:21.809Z,91.13
2019-05-23T04:58:21.748Z,90.41
2019-05-23T04:59:21.823Z,90.00
2019-05-23T05:00:21.742Z,90.00
2019-05-23T05:01:21.766Z,89.70
2019-05-23T05:02:26.138Z,89.76
2019-05-23T05:03:21.748Z,89.86
2019-05-23T05:04:21.687Z,89.76
2019-05-23T05:05:21.669Z,90.37
2019-05-23T05:06:21.675Z,90.11
2019-05-23T05:07:21.660Z,90.58
2019-05-23T05:08:21.649Z,89.76
2019-05-23T05:09:21.678Z,89.86
2019-05-23T05:10:21.814Z,89.86
2019-05-23T05:11:21.619Z,89.65
2019-05-23T05:12:21.629Z,89.82
2019-05-23T05:13:21.582Z,89.00
2019-05-23T05:14:21.575Z,89.41
2019-05-23T05:15:21.588Z,89.20
2019-05-23T05:16:21.632Z,88.70
2019-05-23T05:17:21.563Z,89.41
2019-05-23T05:18:21.584Z,88.70
2019-05-23T05:19:21.625Z,88.45
2019-05-23T05:20:21.499Z,88.35
2019-05-23T05:21:21.501Z,88.24
2019-05-23T05:22:21.495Z,87.53
2019-05-23T05:23:21.473Z,87.53
2019-05-23T05:24:21.514Z,87.43
2019-05-23T05:25:21.490Z,87.43
2019-05-23T05:26:21.456Z,87.53
2019-05-23T05:27:21.453Z,87.59
2019-05-23T05:28:21.445Z,86.88
2019-05-23T05:29:21.404Z,86.88
2019-05-23T05:30:21.402Z,86.47
2019-05-23T05:31:21.485Z,86.77
2019-05-23T05:32:22.285Z,86.26
2019-05-23T05:33:21.408Z,85.92
2019-05-23T05:34:21.350Z,85.92
2019-05-23T05:35:21.335Z,85.92
2019-05-23T05:36:21.318Z,86.02
2019-05-23T05:37:21.305Z,85.41
2019-05-23T05:38:21.360Z,85.92
2019-05-23T05:39:21.309Z,84.90
2019-05-23T05:40:21.320Z,85.41
2019-05-23T05:41:21.261Z,84.55
2019-05-23T05:42:21.365Z,85.47
2019-05-23T05:43:21.241Z,84.75
2019-05-23T05:44:21.450Z,84.75
2019-05-23T05:45:21.480Z,85.27
2019-05-23T05:46:21.205Z,84.96
2019-05-23T05:47:21.214Z,85.06
2019-05-23T05:48:21.177Z,84.96
2019-05-23T05:49:21.202Z,84.20
2019-05-23T05:50:21.204Z,84.31
2019-05-23T05:51:21.383Z,84.34
2019-05-23T05:52:21.143Z,85.02
2019-05-23T05:53:21.212Z,84.41
2019-05-23T05:54:21.129Z,84.61
2019-05-23T05:55:21.118Z,83.90
2019-05-23T05:56:21.179Z,84.00
2019-05-23T05:57:21.151Z,83.90
2019-05-23T05:58:21.212Z,83.59
2019-05-23T05:59:21.082Z,84.20
2019-05-23T06:00:21.082Z,83.49
2019-05-23T06:01:33.497Z,83.45
2019-05-23T06:02:22.085Z,83.35
2019-05-23T06:03:21.367Z,83.62
2019-05-23T06:04:21.061Z,82.60
2019-05-23T06:05:21.050Z,82.19
2019-05-23T06:06:21.072Z,82.09
2019-05-23T06:07:20.963Z,82.60
2019-05-23T06:08:20.949Z,81.99
2019-05-23T06:09:21.010Z,81.95
2019-05-23T06:10:21.028Z,82.19
2019-05-23T06:11:20.945Z,82.26
2019-05-23T06:12:20.909Z,82.05
2019-05-23T06:13:20.906Z,81.65
2019-05-23T06:14:20.901Z,81.71
2019-05-23T06:15:20.916Z,81.24
2019-05-23T06:16:20.918Z,81.60
2019-05-23T06:17:20.860Z,81.81
2019-05-23T06:18:20.849Z,81.30
2019-05-23T06:19:20.830Z,80.59
2019-05-23T06:20:20.844Z,80.69
2019-05-23T06:21:20.814Z,81.30
2019-05-23T06:22:20.908Z,81.30
2019-05-23T06:23:20.810Z,81.26
2019-05-23T06:24:39.350Z,81.16
2019-05-23T06:25:21.837Z,80.76
2019-05-23T06:26:20.750Z,80.04
2019-05-23T06:27:20.750Z,79.53
2019-05-23T06:28:20.745Z,79.94
2019-05-23T06:29:20.770Z,80.15
2019-05-23T06:30:20.715Z,80.21
2019-05-23T06:31:20.951Z,79.29
2019-05-23T06:32:20.774Z,80.00
2019-05-23T06:33:23.856Z,80.11
2019-05-23T06:34:20.660Z,79.29
2019-05-23T06:35:20.706Z,78.78
2019-05-23T06:36:20.640Z,78.99
2019-05-23T06:37:20.636Z,79.39
2019-05-23T06:38:20.624Z,79.25
2019-05-23T06:39:20.708Z,79.36
2019-05-23T06:40:20.670Z,79.66
2019-05-23T06:41:20.576Z,78.44
2019-05-23T06:42:20.602Z,78.24
2019-05-23T06:43:20.737Z,78.04
2019-05-23T06:44:20.540Z,78.14
2019-05-23T06:45:20.587Z,77.70
2019-05-23T06:46:20.542Z,77.19
2019-05-23T06:47:20.639Z,76.98
2019-05-23T06:48:20.548Z,77.59
2019-05-23T06:49:20.489Z,77.70
2019-05-23T06:50:20.504Z,76.68
2019-05-23T06:51:20.481Z,75.97
2019-05-23T06:52:20.677Z,76.44
2019-05-23T06:53:20.557Z,76.64
2019-05-23T06:54:20.559Z,75.73
2019-05-23T06:55:20.421Z,75.83
2019-05-23T06:56:20.401Z,75.73
2019-05-23T06:57:20.410Z,75.63
2019-05-23T06:58:20.832Z,76.24
2019-05-23T06:59:20.450Z,76.40
2019-05-23T07:00:20.393Z,76.10
2019-05-23T07:01:20.374Z,76.00
2019-05-23T07:02:20.405Z,75.49
2019-05-23T07:03:20.410Z,75.70
2019-05-23T07:04:20.755Z,74.95
2019-05-23T07:05:20.391Z,75.25
2019-05-23T07:06:20.336Z,74.85
2019-05-23T07:07:20.287Z,74.54
2019-05-23T07:08:20.750Z,74.85
2019-05-23T07:09:20.321Z,74.65
2019-05-23T07:10:20.252Z,74.54
2019-05-23T07:11:20.237Z,74.54
2019-05-23T07:12:20.278Z,74.61
2019-05-23T07:13:20.231Z,74.61
2019-05-23T07:14:20.256Z,73.90
2019-05-23T07:15:20.275Z,73.46
2019-05-23T07:16:20.231Z,74.07
2019-05-23T07:17:20.207Z,73.25
2019-05-23T07:18:20.204Z,73.05
2019-05-23T07:19:20.149Z,73.46
2019-05-23T07:20:20.340Z,73.46
2019-05-23T07:21:20.193Z,72.65
2019-05-23T07:22:20.167Z,73.16
2019-05-23T07:23:20.211Z,72.61
2019-05-23T07:24:20.095Z,72.81
2019-05-23T07:25:20.092Z,72.61
2019-05-23T07:26:20.076Z,71.91
2019-05-23T07:27:20.375Z,72.48
2019-05-23T07:28:20.119Z,71.67
2019-05-23T07:29:20.087Z,71.77
2019-05-23T07:30:20.062Z,71.06
2019-05-23T07:31:20.018Z,71.26
2019-05-23T07:32:20.014Z,71.33
2019-05-23T07:33:20.004Z,70.12
2019-05-23T07:34:20.281Z,70.42
2019-05-23T07:35:20.018Z,70.09
2019-05-23T07:36:20.002Z,69.41
2019-05-23T07:37:20.032Z,69.68
2019-05-23T07:38:19.942Z,69.27
2019-05-23T07:39:20.665Z,68.87
2019-05-23T07:40:19.930Z,69.58
2019-05-23T07:41:19.952Z,68.94
2019-05-23T07:42:19.909Z,69.34
2019-05-23T07:43:19.940Z,69.55
2019-05-23T07:44:19.929Z,69.04
2019-05-23T07:45:19.857Z,69.34
2019-05-23T07:46:19.944Z,69.14
2019-05-23T07:47:19.837Z,68.13
2019-05-23T07:48:19.884Z,69.04
2019-05-23T07:49:19.935Z,69.11
2019-05-23T07:50:19.943Z,68.91
2019-05-23T07:51:19.792Z,68.10
2019-05-23T07:52:20.392Z,68.40
2019-05-23T07:53:20.151Z,68.91
2019-05-23T07:54:20.078Z,68.27
2019-05-23T07:55:19.883Z,68.27
2019-05-23T07:56:19.871Z,67.66
2019-05-23T07:57:19.742Z,68.07
2019-05-23T07:58:19.738Z,68.33
2019-05-23T07:59:19.721Z,67.63
2019-05-23T08:00:19.752Z,67.33
2019-05-23T08:01:19.960Z,67.63
2019-05-23T08:02:19.730Z,67.40
2019-05-23T08:03:19.685Z,66.89
2019-05-23T08:04:22.216Z,66.99
2019-05-23T08:05:19.669Z,66.59
2019-05-23T08:06:19.635Z,66.56
2019-05-23T08:07:19.618Z,66.56
2019-05-23T08:08:19.730Z,66.56
2019-05-23T08:09:21.740Z,66.33
2019-05-23T08:10:33.094Z,67.03
2019-05-23T08:11:20.602Z,65.62
2019-05-23T08:12:21.054Z,64.98
2019-05-23T08:13:21.011Z,64.41
2019-05-23T08:14:20.336Z,64.98
2019-05-23T08:15:21.888Z,64.69
2019-05-23T08:16:21.362Z,64.28
2019-05-23T08:17:19.690Z,64.28
2019-05-23T08:18:19.507Z,64.48
2019-05-23T08:19:19.953Z,63.45
2019-05-23T08:20:19.676Z,64.07
2019-05-23T08:21:19.684Z,64.38
2019-05-23T08:22:19.486Z,64.05
2019-05-23T08:23:20.547Z,63.85
2019-05-23T08:24:19.540Z,64.25
2019-05-23T08:25:19.529Z,64.02
2019-05-23T08:26:19.490Z,62.71
2019-05-23T08:27:19.384Z,62.58
2019-05-23T08:28:19.408Z,62.38
2019-05-23T08:29:26.052Z,61.47
2019-05-23T08:30:20.426Z,61.34
2019-05-23T08:31:19.408Z,61.14
2019-05-23T08:32:19.347Z,60.84
2019-05-23T08:33:19.589Z,60.53
2019-05-23T08:34:19.363Z,60.84
2019-05-23T08:35:19.299Z,60.41
2019-05-23T08:36:19.308Z,60.11
2019-05-23T08:37:19.375Z,59.70
2019-05-23T08:38:19.423Z,60.41
2019-05-23T08:39:19.256Z,60.11
2019-05-23T08:40:19.241Z,59.70
2019-05-23T08:41:19.292Z,59.30
2019-05-23T08:42:19.332Z,59.98
2019-05-23T08:43:19.334Z,59.98
2019-05-23T08:44:19.263Z,59.75
2019-05-23T08:45:19.198Z,58.27
2019-05-23T08:46:20.257Z,57.77
2019-05-23T08:47:19.186Z,58.24
2019-05-23T08:51:02.803Z,57.81
2019-05-23T08:52:02.855Z,58.11
2019-05-23T08:53:02.629Z,56.68
2019-05-23T08:54:02.618Z,53.97
2019-05-23T08:55:02.556Z,55.88
2019-05-23T08:56:02.588Z,53.77
2019-05-23T08:57:02.587Z,51.06
2019-05-23T08:58:02.573Z,54.07
2019-05-23T08:59:02.555Z,55.35
2019-05-23T09:00:02.506Z,53.34
2019-05-23T09:01:02.519Z,51.12
2019-05-23T09:02:02.486Z,50.24
2019-05-23T09:03:02.471Z,50.71
2019-05-23T09:04:02.504Z,50.59
2019-05-23T09:05:05.974Z,49.19
2019-05-23T09:06:02.440Z,48.38
2019-05-23T09:07:02.595Z,47.58
2019-05-23T09:08:02.417Z,46.96
2019-05-23T09:09:02.417Z,46.78
2019-05-23T09:10:02.393Z,46.98
2019-05-23T09:11:02.459Z,47.28
2019-05-23T09:12:02.390Z,47.78
2019-05-23T09:13:02.537Z,48.38
2019-05-23T09:14:02.388Z,47.88
2019-05-23T09:15:02.334Z,47.76
2019-05-23T09:16:02.322Z,47.56
2019-05-23T09:17:02.405Z,47.86
2019-05-23T09:18:02.412Z,47.96
2019-05-23T09:19:02.299Z,48.24
2019-05-23T09:20:02.351Z,47.42
2019-05-23T09:21:02.383Z,46.62
2019-05-23T09:22:02.288Z,46.31
2019-05-23T09:23:03.643Z,46.22
2019-05-23T09:24:02.507Z,44.89
2019-05-23T09:25:02.271Z,44.97
2019-05-23T09:26:02.427Z,44.97
2019-05-23T09:27:02.285Z,44.67
2019-05-23T09:28:02.468Z,44.20
2019-05-23T09:29:02.204Z,44.29
2019-05-23T09:30:02.179Z,45.09
2019-05-23T09:31:02.371Z,44.97
2019-05-23T09:32:02.215Z,44.97
2019-05-23T09:33:02.165Z,44.59
2019-05-23T09:34:02.215Z,44.67
2019-05-23T09:35:19.185Z,45.17
2019-05-23T09:36:03.121Z,44.57
2019-05-23T09:37:02.146Z,44.47
2019-05-23T09:38:02.272Z,44.95
2019-05-23T09:39:02.356Z,45.03
2019-05-23T09:40:02.089Z,43.53
2019-05-23T09:41:02.109Z,42.51
2019-05-23T09:42:02.059Z,41.63
2019-05-23T09:43:02.072Z,42.03
2019-05-23T09:44:02.096Z,42.25
2019-05-23T09:45:02.093Z,42.97
2019-05-23T09:46:02.052Z,42.87
2019-05-23T09:47:02.078Z,43.05
2019-05-23T09:48:02.037Z,43.13
2019-05-23T09:49:01.970Z,43.13
2019-05-23T09:50:02.014Z,43.01
2019-05-23T09:51:02.085Z,41.69
2019-05-23T09:52:01.974Z,42.67
2019-05-23T09:53:01.933Z,40.78
2019-05-23T09:54:01.954Z,40.80
2019-05-23T09:55:03.234Z,41.38
2019-05-23T09:56:02.211Z,41.38
2019-05-23T09:57:01.895Z,40.78
2019-05-23T09:58:02.600Z,39.96
2019-05-23T09:59:01.855Z,40.86
2019-05-23T10:00:01.970Z,40.34
2019-05-23T10:01:02.133Z,39.62
2019-05-23T10:02:01.975Z,39.83
2019-05-23T10:03:01.815Z,40.52
2019-05-23T10:04:01.865Z,40.24
2019-05-23T10:05:01.808Z,40.62
2019-05-23T10:06:03.066Z,40.34
2019-05-23T10:07:01.882Z,41.17
2019-05-23T10:08:01.842Z,41.28
2019-05-23T10:09:01.829Z,40.98
2019-05-23T10:10:02.071Z,42.37
2019-05-23T10:11:01.918Z,42.40
2019-05-23T10:12:01.710Z,41.99
2019-05-23T10:13:01.951Z,42.18
2019-05-23T10:14:01.878Z,40.92
2019-05-23T10:15:01.745Z,41.61
2019-05-23T10:16:01.743Z,42.61
2019-05-23T10:17:02.021Z,42.40
2019-05-23T10:18:01.668Z,41.28
2019-05-23T10:19:01.665Z,41.08
2019-05-23T10:20:01.764Z,41.28
2019-05-23T10:21:01.633Z,41.08
2019-05-23T10:22:02.045Z,41.77
2019-05-23T10:23:01.618Z,41.77
2019-05-23T10:24:01.616Z,42.77
2019-05-23T10:25:01.569Z,42.29
2019-05-23T10:26:01.639Z,41.50
2019-05-23T10:27:01.750Z,42.10
2019-05-23T10:28:01.648Z,42.79
2019-05-23T10:29:01.775Z,42.69
2019-05-23T10:30:02.167Z,42.67
2019-05-23T10:31:01.573Z,42.07
2019-05-23T10:32:01.508Z,42.27
2019-05-23T10:33:01.533Z,42.75
2019-05-23T10:34:01.480Z,42.97
2019-05-23T10:35:01.605Z,43.49
2019-05-23T10:36:01.520Z,44.31
2019-05-23T10:37:01.446Z,43.21
2019-05-23T10:38:01.569Z,45.23
2019-05-23T10:39:01.558Z,44.73
2019-05-23T10:40:01.462Z,44.83
2019-05-23T10:41:01.507Z,43.03
2019-05-23T10:42:01.445Z,43.03
2019-05-23T10:43:01.395Z,43.43
2019-05-23T10:44:01.596Z,43.31
2019-05-23T10:45:01.716Z,42.61
2019-05-23T10:46:01.451Z,43.21
2019-05-23T10:47:01.403Z,42.89
2019-05-23T10:48:01.327Z,43.21
2019-05-23T10:49:01.323Z,42.63
2019-05-23T10:50:07.610Z,42.95
2019-05-23T10:51:02.365Z,42.83
2019-05-23T10:52:01.388Z,42.63
2019-05-23T10:53:01.277Z,42.91
2019-05-23T10:54:01.319Z,42.89
2019-05-23T10:55:01.239Z,42.40
2019-05-23T10:56:01.271Z,42.41
2019-05-23T10:57:01.241Z,43.11
2019-05-23T10:58:01.288Z,43.13
2019-05-23T10:59:01.250Z,42.63
2019-05-23T11:00:01.204Z,43.01
2019-05-23T11:01:01.179Z,42.59
2019-05-23T11:02:01.252Z,42.57
2019-05-23T11:03:01.303Z,42.75
2019-05-23T11:04:01.165Z,41.75
2019-05-23T11:05:12.041Z,40.95
2019-05-23T11:07:12.123Z,43.17
2019-05-23T11:08:12.062Z,42.15
2019-05-23T11:09:12.058Z,40.34
2019-05-23T11:10:12.051Z,40.44
2019-05-23T11:11:14.400Z,40.64
2019-05-23T11:12:12.050Z,40.12
2019-05-23T11:13:12.023Z,40.50
2019-05-23T11:14:12.067Z,40.36
2019-05-23T11:15:12.802Z,39.86
2019-05-23T11:16:12.025Z,40.06
2019-05-23T11:17:12.041Z,39.78
2019-05-23T11:18:11.976Z,40.22
2019-05-23T11:19:11.930Z,40.42
2019-05-23T11:20:11.980Z,40.52
2019-05-23T11:21:11.903Z,40.82
2019-05-23T11:22:12.143Z,40.74
2019-05-23T11:23:11.970Z,40.64
2019-05-23T11:24:11.913Z,40.62
2019-05-23T11:25:11.874Z,40.32
2019-05-23T11:26:11.908Z,40.60
2019-05-23T11:27:11.931Z,39.12
2019-05-23T11:28:11.882Z,39.11
2019-05-23T11:29:11.837Z,39.12
2019-05-23T11:30:11.846Z,39.23
2019-05-23T11:31:11.809Z,39.80
2019-05-23T11:32:11.830Z,39.48
2019-05-23T11:33:11.804Z,39.07
2019-05-23T11:34:11.927Z,37.98
2019-05-23T11:35:11.759Z,38.85
2019-05-23T11:36:11.752Z,38.04
2019-05-23T11:37:11.783Z,39.33
2019-05-23T11:38:11.948Z,38.22
2019-05-23T11:39:12.902Z,37.94
2019-05-23T11:40:11.722Z,39.43
2019-05-23T11:41:11.970Z,38.32
2019-05-23T11:42:12.168Z,37.52
2019-05-23T11:43:12.300Z,37.51
2019-05-23T11:44:12.095Z,37.30
2019-05-23T11:45:12.023Z,36.79
2019-05-23T11:46:12.036Z,36.08
2019-05-23T11:47:11.667Z,37.15
2019-05-23T11:48:11.723Z,36.48
2019-05-23T11:49:11.991Z,37.26
2019-05-23T11:50:11.747Z,37.37
2019-05-23T11:51:12.065Z,36.56
2019-05-23T11:52:11.591Z,36.36
2019-05-23T11:53:11.660Z,36.46
2019-05-23T11:54:11.588Z,34.08
2019-05-23T11:55:11.618Z,33.90
2019-05-23T11:56:11.572Z,34.41
2019-05-23T11:57:11.547Z,35.50
2019-05-23T11:58:11.631Z,36.00
2019-05-23T11:59:11.539Z,35.92
2019-05-23T12:00:11.476Z,35.72
2019-05-23T12:01:19.916Z,35.85
2019-05-23T12:02:12.510Z,36.36
2019-05-23T12:03:11.460Z,35.85
2019-05-23T12:04:11.454Z,36.73
2019-05-23T12:05:11.505Z,35.50
2019-05-23T12:06:11.492Z,34.48
2019-05-23T12:07:11.526Z,34.78
2019-05-23T12:08:11.502Z,34.76
2019-05-23T12:09:11.626Z,34.05
2019-05-23T12:10:11.401Z,33.85
2019-05-23T12:11:11.378Z,34.23
2019-05-23T12:12:11.409Z,33.94
2019-05-23T12:13:11.351Z,34.83
2019-05-23T12:14:11.398Z,33.65
2019-05-23T12:15:11.354Z,34.63
2019-05-23T12:16:11.353Z,35.04
2019-05-23T12:17:11.289Z,34.34
2019-05-23T12:18:11.279Z,34.78
2019-05-23T12:19:11.369Z,35.86
2019-05-23T12:20:11.565Z,36.36
2019-05-23T12:21:11.266Z,34.45
2019-05-23T12:22:11.268Z,33.85
2019-05-23T12:23:11.388Z,32.46
2019-05-23T12:24:11.211Z,32.37
2019-05-23T12:25:21.764Z,32.86
2019-05-23T12:26:12.213Z,33.16
2019-05-23T12:27:11.175Z,31.96
2019-05-23T12:28:11.253Z,32.55
2019-05-23T12:29:11.158Z,35.58
2019-05-23T12:30:11.160Z,37.32
2019-05-23T12:31:11.192Z,38.14
2019-05-23T12:32:11.158Z,37.45
2019-05-23T12:33:11.164Z,39.17
2019-05-23T12:34:11.794Z,38.87
2019-05-23T12:35:12.155Z,38.67
2019-05-23T12:36:11.107Z,39.78
2019-05-23T12:37:18.583Z,39.09
2019-05-23T12:38:12.098Z,39.27
2019-05-23T12:39:11.067Z,39.76
2019-05-23T12:40:11.074Z,38.18
2019-05-23T12:41:11.037Z,37.56
2019-05-23T12:42:11.131Z,37.45
2019-05-23T12:43:11.082Z,38.24
2019-05-23T12:44:11.038Z,37.45
2019-05-23T12:45:11.034Z,36.85
2019-05-23T12:46:11.049Z,38.34
2019-05-23T12:47:10.967Z,37.13
2019-05-23T12:48:11.007Z,37.13
2019-05-23T12:49:10.935Z,37.70
2019-05-23T12:50:10.933Z,37.82
2019-05-23T12:51:10.925Z,38.04
2019-05-23T12:52:10.910Z,37.45
2019-05-23T12:53:10.944Z,37.52
2019-05-23T12:54:10.900Z,37.13
2019-05-23T12:55:10.881Z,36.69
2019-05-23T12:56:10.994Z,35.97